sensor_id;sensor_type;location;lat;lon;timestamp;temperature;humidity
24452;DHT22;13350;50.984;5.822;2023-08-06T00:01:50;15.10;99.90
24452;DHT22;13350;50.984;5.822;2023-08-06T00:04:18;15.10;99.90
24452;DHT22;13350;50.984;5.822;2023-08-06T00:06:46;15.10;99.90
24452;DHT22;13350;50.984;5.822;2023-08-06T00:09:13;15.20;99.90
24452;DHT22;13350;50.984;5.822;2023-08-06T00:11:40;15.20;99.90
24452;DHT22;13350;50.984;5.822;2023-08-06T00:14:09;15.20;99.90
24452;DHT22;13350;50.984;5.822;2023-08-06T00:16:36;15.20;99.90
24452;DHT22;13350;50.984;5.822;2023-08-06T00:19:03;15.10;99.90
24452;DHT22;13350;50.984;5.822;2023-08-06T00:21:31;15.00;99.90
24452;DHT22;13350;50.984;5.822;2023-08-06T00:23:58;15.00;99.90
24452;DHT22;13350;50.984;5.822;2023-08-06T00:26:25;14.90;99.90
24452;DHT22;13350;50.984;5.822;2023-08-06T00:28:52;14.90;99.90
24452;DHT22;13350;50.984;5.822;2023-08-06T00:31:19;14.90;99.90
24452;DHT22;13350;50.984;5.822;2023-08-06T00:33:46;14.90;99.90
24452;DHT22;13350;50.984;5.822;2023-08-06T00:36:13;14.80;99.90
24452;DHT22;13350;50.984;5.822;2023-08-06T00:38:42;14.70;99.90
24452;DHT22;13350;50.984;5.822;2023-08-06T00:41:08;14.60;99.90
24452;DHT22;13350;50.984;5.822;2023-08-06T00:43:35;14.60;99.90
24452;DHT22;13350;50.984;5.822;2023-08-06T00:46:02;14.60;99.90
24452;DHT22;13350;50.984;5.822;2023-08-06T00:48:29;14.50;99.90
24452;DHT22;13350;50.984;5.822;2023-08-06T00:50:56;14.50;99.90
24452;DHT22;13350;50.984;5.822;2023-08-06T00:53:23;14.50;99.90
24452;DHT22;13350;50.984;5.822;2023-08-06T00:55:52;14.50;99.90
24452;DHT22;13350;50.984;5.822;2023-08-06T00:58:19;14.50;99.90
24452;DHT22;13350;50.984;5.822;2023-08-06T01:00:46;14.40;99.90
24452;DHT22;13350;50.984;5.822;2023-08-06T01:03:13;14.40;99.90
24452;DHT22;13350;50.984;5.822;2023-08-06T01:05:41;14.40;99.90
24452;DHT22;13350;50.984;5.822;2023-08-06T01:08:12;14.40;99.90
24452;DHT22;13350;50.984;5.822;2023-08-06T01:10:45;14.40;99.90
24452;DHT22;13350;50.984;5.822;2023-08-06T01:13:18;14.40;99.90
24452;DHT22;13350;50.984;5.822;2023-08-06T01:15:49;14.40;99.90
24452;DHT22;13350;50.984;5.822;2023-08-06T01:18:16;14.50;99.90
24452;DHT22;13350;50.984;5.822;2023-08-06T01:20:44;14.50;99.90
24452;DHT22;13350;50.984;5.822;2023-08-06T01:23:11;14.60;99.90
24452;DHT22;13350;50.984;5.822;2023-08-06T01:25:39;14.70;99.90
24452;DHT22;13350;50.984;5.822;2023-08-06T01:28:11;14.80;99.90
24452;DHT22;13350;50.984;5.822;2023-08-06T01:30:40;14.80;99.90
24452;DHT22;13350;50.984;5.822;2023-08-06T01:33:10;14.80;99.90
24452;DHT22;13350;50.984;5.822;2023-08-06T01:35:40;14.80;99.90
24452;DHT22;13350;50.984;5.822;2023-08-06T01:38:08;14.80;99.90
24452;DHT22;13350;50.984;5.822;2023-08-06T01:40:36;14.90;99.90
24452;DHT22;13350;50.984;5.822;2023-08-06T01:43:02;14.90;99.90
24452;DHT22;13350;50.984;5.822;2023-08-06T01:45:29;14.80;99.90
24452;DHT22;13350;50.984;5.822;2023-08-06T01:47:56;14.90;99.90
24452;DHT22;13350;50.984;5.822;2023-08-06T01:50:23;14.90;99.90
24452;DHT22;13350;50.984;5.822;2023-08-06T01:52:50;14.80;99.90
24452;DHT22;13350;50.984;5.822;2023-08-06T01:55:19;14.90;99.90
24452;DHT22;13350;50.984;5.822;2023-08-06T01:57:46;14.90;99.90
24452;DHT22;13350;50.984;5.822;2023-08-06T02:00:13;14.80;99.90
24452;DHT22;13350;50.984;5.822;2023-08-06T02:02:40;14.70;99.90
24452;DHT22;13350;50.984;5.822;2023-08-06T02:05:07;14.60;99.90
24452;DHT22;13350;50.984;5.822;2023-08-06T02:07:34;14.60;99.90
24452;DHT22;13350;50.984;5.822;2023-08-06T02:10:01;14.60;99.90
24452;DHT22;13350;50.984;5.822;2023-08-06T02:12:29;14.60;99.90
24452;DHT22;13350;50.984;5.822;2023-08-06T02:14:56;14.50;99.90
24452;DHT22;13350;50.984;5.822;2023-08-06T02:17:23;14.60;99.90
24452;DHT22;13350;50.984;5.822;2023-08-06T02:19:50;14.60;99.90
24452;DHT22;13350;50.984;5.822;2023-08-06T02:22:17;14.60;99.90
24452;DHT22;13350;50.984;5.822;2023-08-06T02:24:44;14.60;99.90
24452;DHT22;13350;50.984;5.822;2023-08-06T02:27:11;14.60;99.90
24452;DHT22;13350;50.984;5.822;2023-08-06T02:29:41;14.60;99.90
24452;DHT22;13350;50.984;5.822;2023-08-06T02:32:08;14.50;99.90
24452;DHT22;13350;50.984;5.822;2023-08-06T02:34:35;14.50;99.90
24452;DHT22;13350;50.984;5.822;2023-08-06T02:37:02;14.40;99.90
24452;DHT22;13350;50.984;5.822;2023-08-06T02:39:29;14.40;99.90
24452;DHT22;13350;50.984;5.822;2023-08-06T02:41:56;14.40;99.90
24452;DHT22;13350;50.984;5.822;2023-08-06T02:44:23;14.40;99.90
24452;DHT22;13350;50.984;5.822;2023-08-06T02:46:51;14.40;99.90
24452;DHT22;13350;50.984;5.822;2023-08-06T02:49:18;14.40;99.90
24452;DHT22;13350;50.984;5.822;2023-08-06T02:51:45;14.40;99.90
24452;DHT22;13350;50.984;5.822;2023-08-06T02:54:12;14.40;99.90
24452;DHT22;13350;50.984;5.822;2023-08-06T02:56:42;14.40;99.90
24452;DHT22;13350;50.984;5.822;2023-08-06T02:59:09;14.40;99.90
24452;DHT22;13350;50.984;5.822;2023-08-06T03:01:36;14.40;99.90
24452;DHT22;13350;50.984;5.822;2023-08-06T03:04:05;14.40;99.90
24452;DHT22;13350;50.984;5.822;2023-08-06T03:06:32;14.40;99.90
24452;DHT22;13350;50.984;5.822;2023-08-06T03:08:59;14.40;99.90
24452;DHT22;13350;50.984;5.822;2023-08-06T03:11:26;14.40;99.90
24452;DHT22;13350;50.984;5.822;2023-08-06T03:13:53;14.40;99.90
24452;DHT22;13350;50.984;5.822;2023-08-06T03:16:20;14.40;99.90
24452;DHT22;13350;50.984;5.822;2023-08-06T03:18:47;14.30;99.90
24452;DHT22;13350;50.984;5.822;2023-08-06T03:21:16;14.30;99.90
24452;DHT22;13350;50.984;5.822;2023-08-06T03:23:43;14.40;99.90
24452;DHT22;13350;50.984;5.822;2023-08-06T03:26:10;14.40;99.90
24452;DHT22;13350;50.984;5.822;2023-08-06T03:28:37;14.40;99.90
24452;DHT22;13350;50.984;5.822;2023-08-06T03:31:04;14.40;99.90
24452;DHT22;13350;50.984;5.822;2023-08-06T03:33:31;14.40;99.90
24452;DHT22;13350;50.984;5.822;2023-08-06T03:35:58;14.40;99.90
24452;DHT22;13350;50.984;5.822;2023-08-06T03:38:27;14.40;99.90
24452;DHT22;13350;50.984;5.822;2023-08-06T03:40:54;14.40;99.90
24452;DHT22;13350;50.984;5.822;2023-08-06T03:43:21;14.40;99.90
24452;DHT22;13350;50.984;5.822;2023-08-06T03:45:48;14.50;99.90
24452;DHT22;13350;50.984;5.822;2023-08-06T03:48:15;14.50;99.90
24452;DHT22;13350;50.984;5.822;2023-08-06T03:50:42;14.50;99.90
24452;DHT22;13350;50.984;5.822;2023-08-06T03:53:09;14.50;99.90
24452;DHT22;13350;50.984;5.822;2023-08-06T03:55:38;14.50;99.90
24452;DHT22;13350;50.984;5.822;2023-08-06T03:58:05;14.50;99.90
24452;DHT22;13350;50.984;5.822;2023-08-06T04:00:32;14.50;99.90
24452;DHT22;13350;50.984;5.822;2023-08-06T04:02:59;14.50;99.90
24452;DHT22;13350;50.984;5.822;2023-08-06T04:05:26;14.50;99.90
24452;DHT22;13350;50.984;5.822;2023-08-06T04:07:53;14.50;99.90
24452;DHT22;13350;50.984;5.822;2023-08-06T04:10:20;14.50;99.90
24452;DHT22;13350;50.984;5.822;2023-08-06T04:12:48;14.40;99.90
24452;DHT22;13350;50.984;5.822;2023-08-06T04:15:15;14.40;99.90
24452;DHT22;13350;50.984;5.822;2023-08-06T04:17:42;14.40;99.90
24452;DHT22;13350;50.984;5.822;2023-08-06T04:20:10;14.40;99.90
24452;DHT22;13350;50.984;5.822;2023-08-06T04:22:37;14.50;99.90
24452;DHT22;13350;50.984;5.822;2023-08-06T04:25:04;14.50;99.90
24452;DHT22;13350;50.984;5.822;2023-08-06T04:27:31;14.50;99.90
24452;DHT22;13350;50.984;5.822;2023-08-06T04:30:00;14.40;99.90
24452;DHT22;13350;50.984;5.822;2023-08-06T04:32:27;14.50;99.90
24452;DHT22;13350;50.984;5.822;2023-08-06T04:34:55;14.50;99.90
24452;DHT22;13350;50.984;5.822;2023-08-06T04:37:22;14.50;99.90
24452;DHT22;13350;50.984;5.822;2023-08-06T04:39:49;14.50;99.90
24452;DHT22;13350;50.984;5.822;2023-08-06T04:42:16;14.50;99.90
24452;DHT22;13350;50.984;5.822;2023-08-06T04:44:43;14.60;99.90
24452;DHT22;13350;50.984;5.822;2023-08-06T04:47:12;14.50;99.90
24452;DHT22;13350;50.984;5.822;2023-08-06T04:49:39;14.50;99.90
24452;DHT22;13350;50.984;5.822;2023-08-06T04:52:06;14.60;99.90
24452;DHT22;13350;50.984;5.822;2023-08-06T04:54:33;14.60;99.90
24452;DHT22;13350;50.984;5.822;2023-08-06T04:57:00;14.60;99.90
24452;DHT22;13350;50.984;5.822;2023-08-06T04:59:27;14.60;99.90
24452;DHT22;13350;50.984;5.822;2023-08-06T05:01:54;14.60;99.90
24452;DHT22;13350;50.984;5.822;2023-08-06T05:04:22;14.60;99.90
24452;DHT22;13350;50.984;5.822;2023-08-06T05:06:49;14.70;99.90
24452;DHT22;13350;50.984;5.822;2023-08-06T05:09:17;14.70;99.90
24452;DHT22;13350;50.984;5.822;2023-08-06T05:11:44;14.70;99.90
24452;DHT22;13350;50.984;5.822;2023-08-06T05:14:11;14.70;99.90
24452;DHT22;13350;50.984;5.822;2023-08-06T05:16:38;14.70;99.90
24452;DHT22;13350;50.984;5.822;2023-08-06T05:19:05;14.70;99.90
24452;DHT22;13350;50.984;5.822;2023-08-06T05:21:33;14.80;99.90
24452;DHT22;13350;50.984;5.822;2023-08-06T05:24:00;14.80;99.90
24452;DHT22;13350;50.984;5.822;2023-08-06T05:26:27;14.70;99.90
24452;DHT22;13350;50.984;5.822;2023-08-06T05:28:54;14.80;99.90
24452;DHT22;13350;50.984;5.822;2023-08-06T05:31:20;14.80;99.90
24452;DHT22;13350;50.984;5.822;2023-08-06T05:33:47;14.80;99.90
24452;DHT22;13350;50.984;5.822;2023-08-06T05:36:14;14.80;99.90
24452;DHT22;13350;50.984;5.822;2023-08-06T05:38:44;14.80;99.90
24452;DHT22;13350;50.984;5.822;2023-08-06T05:41:11;14.90;99.90
24452;DHT22;13350;50.984;5.822;2023-08-06T05:43:38;14.90;99.90
24452;DHT22;13350;50.984;5.822;2023-08-06T05:46:05;14.90;99.90
24452;DHT22;13350;50.984;5.822;2023-08-06T05:48:33;15.00;99.90
24452;DHT22;13350;50.984;5.822;2023-08-06T05:51:00;14.90;99.90
24452;DHT22;13350;50.984;5.822;2023-08-06T05:53:27;15.00;99.90
24452;DHT22;13350;50.984;5.822;2023-08-06T05:55:55;15.10;99.90
24452;DHT22;13350;50.984;5.822;2023-08-06T05:58:22;15.00;99.90
24452;DHT22;13350;50.984;5.822;2023-08-06T06:00:51;15.10;99.90
24452;DHT22;13350;50.984;5.822;2023-08-06T06:03:18;15.00;99.90
24452;DHT22;13350;50.984;5.822;2023-08-06T06:05:45;15.00;99.90
24452;DHT22;13350;50.984;5.822;2023-08-06T06:08:12;15.10;99.90
24452;DHT22;13350;50.984;5.822;2023-08-06T06:10:39;15.00;99.90
24452;DHT22;13350;50.984;5.822;2023-08-06T06:13:08;15.00;99.90
24452;DHT22;13350;50.984;5.822;2023-08-06T06:15:35;15.00;99.90
24452;DHT22;13350;50.984;5.822;2023-08-06T06:18:02;15.00;99.90
24452;DHT22;13350;50.984;5.822;2023-08-06T06:20:31;14.90;99.90
24452;DHT22;13350;50.984;5.822;2023-08-06T06:22:58;15.00;99.90
24452;DHT22;13350;50.984;5.822;2023-08-06T06:25:25;15.00;99.90
24452;DHT22;13350;50.984;5.822;2023-08-06T06:27:52;15.00;99.90
24452;DHT22;13350;50.984;5.822;2023-08-06T06:30:20;14.90;99.90
24452;DHT22;13350;50.984;5.822;2023-08-06T06:32:48;14.90;99.90
24452;DHT22;13350;50.984;5.822;2023-08-06T06:35:15;15.00;99.90
24452;DHT22;13350;50.984;5.822;2023-08-06T06:37:42;14.90;99.90
24452;DHT22;13350;50.984;5.822;2023-08-06T06:40:09;15.00;99.90
24452;DHT22;13350;50.984;5.822;2023-08-06T06:42:36;15.00;99.90
24452;DHT22;13350;50.984;5.822;2023-08-06T06:45:03;14.90;99.90
24452;DHT22;13350;50.984;5.822;2023-08-06T06:47:32;14.90;99.90
24452;DHT22;13350;50.984;5.822;2023-08-06T06:49:59;14.90;99.90
24452;DHT22;13350;50.984;5.822;2023-08-06T06:52:26;14.90;99.90
24452;DHT22;13350;50.984;5.822;2023-08-06T06:54:53;15.00;99.90
24452;DHT22;13350;50.984;5.822;2023-08-06T06:57:20;15.00;99.90
24452;DHT22;13350;50.984;5.822;2023-08-06T06:59:47;15.00;99.90
24452;DHT22;13350;50.984;5.822;2023-08-06T07:02:14;14.90;99.90
24452;DHT22;13350;50.984;5.822;2023-08-06T07:04:42;15.00;99.90
24452;DHT22;13350;50.984;5.822;2023-08-06T07:07:09;15.00;99.90
24452;DHT22;13350;50.984;5.822;2023-08-06T07:09:36;15.10;99.90
24452;DHT22;13350;50.984;5.822;2023-08-06T07:12:04;15.10;99.90
24452;DHT22;13350;50.984;5.822;2023-08-06T07:14:31;15.10;99.90
24452;DHT22;13350;50.984;5.822;2023-08-06T07:16:58;15.10;99.90
24452;DHT22;13350;50.984;5.822;2023-08-06T07:19:25;15.00;99.90
24452;DHT22;13350;50.984;5.822;2023-08-06T07:21:53;15.10;99.90
24452;DHT22;13350;50.984;5.822;2023-08-06T07:24:21;15.10;99.90
24452;DHT22;13350;50.984;5.822;2023-08-06T07:26:48;15.10;99.90
24452;DHT22;13350;50.984;5.822;2023-08-06T07:29:15;15.10;99.90
24452;DHT22;13350;50.984;5.822;2023-08-06T07:31:46;15.00;99.90
24452;DHT22;13350;50.984;5.822;2023-08-06T07:34:13;14.70;99.90
24452;DHT22;13350;50.984;5.822;2023-08-06T07:36:42;14.40;99.90
24452;DHT22;13350;50.984;5.822;2023-08-06T07:39:11;14.30;99.90
24452;DHT22;13350;50.984;5.822;2023-08-06T07:41:38;14.20;99.90
24452;DHT22;13350;50.984;5.822;2023-08-06T07:44:06;14.10;99.90
24452;DHT22;13350;50.984;5.822;2023-08-06T07:46:34;14.10;99.90
24452;DHT22;13350;50.984;5.822;2023-08-06T07:49:01;14.10;99.90
24452;DHT22;13350;50.984;5.822;2023-08-06T07:51:28;14.10;99.90
24452;DHT22;13350;50.984;5.822;2023-08-06T07:53:55;14.10;99.90
24452;DHT22;13350;50.984;5.822;2023-08-06T07:56:23;14.10;99.90
24452;DHT22;13350;50.984;5.822;2023-08-06T07:58:50;14.10;99.90
24452;DHT22;13350;50.984;5.822;2023-08-06T08:01:17;14.10;99.90
24452;DHT22;13350;50.984;5.822;2023-08-06T08:03:44;14.10;99.90
24452;DHT22;13350;50.984;5.822;2023-08-06T08:06:12;14.20;99.90
24452;DHT22;13350;50.984;5.822;2023-08-06T08:08:39;14.10;99.90
24452;DHT22;13350;50.984;5.822;2023-08-06T08:11:06;14.10;99.90
24452;DHT22;13350;50.984;5.822;2023-08-06T08:13:34;14.10;99.90
24452;DHT22;13350;50.984;5.822;2023-08-06T08:16:01;14.10;99.90
24452;DHT22;13350;50.984;5.822;2023-08-06T08:18:28;14.10;99.90
24452;DHT22;13350;50.984;5.822;2023-08-06T08:20:57;14.20;99.90
24452;DHT22;13350;50.984;5.822;2023-08-06T08:23:24;14.20;99.90
24452;DHT22;13350;50.984;5.822;2023-08-06T08:25:51;14.20;99.90
24452;DHT22;13350;50.984;5.822;2023-08-06T08:28:18;14.20;99.90
24452;DHT22;13350;50.984;5.822;2023-08-06T08:30:46;14.20;99.90
24452;DHT22;13350;50.984;5.822;2023-08-06T08:33:13;14.20;99.90
24452;DHT22;13350;50.984;5.822;2023-08-06T08:35:40;14.20;99.90
24452;DHT22;13350;50.984;5.822;2023-08-06T08:38:07;14.20;99.90
24452;DHT22;13350;50.984;5.822;2023-08-06T08:40:34;14.30;99.90
24452;DHT22;13350;50.984;5.822;2023-08-06T08:43:04;14.30;99.90
24452;DHT22;13350;50.984;5.822;2023-08-06T08:45:31;14.40;99.90
24452;DHT22;13350;50.984;5.822;2023-08-06T08:48:03;14.40;99.90
24452;DHT22;13350;50.984;5.822;2023-08-06T08:50:30;14.30;99.90
24452;DHT22;13350;50.984;5.822;2023-08-06T08:52:57;14.30;99.90
24452;DHT22;13350;50.984;5.822;2023-08-06T08:55:24;14.30;99.90
24452;DHT22;13350;50.984;5.822;2023-08-06T08:57:51;14.20;99.90
24452;DHT22;13350;50.984;5.822;2023-08-06T09:00:18;14.30;99.90
24452;DHT22;13350;50.984;5.822;2023-08-06T09:02:45;14.30;99.90
24452;DHT22;13350;50.984;5.822;2023-08-06T09:05:14;14.30;99.90
24452;DHT22;13350;50.984;5.822;2023-08-06T09:07:41;14.30;99.90
24452;DHT22;13350;50.984;5.822;2023-08-06T09:10:10;14.40;99.90
24452;DHT22;13350;50.984;5.822;2023-08-06T09:12:37;14.50;99.90
24452;DHT22;13350;50.984;5.822;2023-08-06T09:15:05;14.60;99.90
24452;DHT22;13350;50.984;5.822;2023-08-06T09:17:32;14.70;99.90
24452;DHT22;13350;50.984;5.822;2023-08-06T09:19:59;14.70;99.90
24452;DHT22;13350;50.984;5.822;2023-08-06T22:55:01;13.10;99.90
24452;DHT22;13350;50.984;5.822;2023-08-06T22:57:28;13.10;99.90
24452;DHT22;13350;50.984;5.822;2023-08-06T22:59:56;13.10;99.90
24452;DHT22;13350;50.984;5.822;2023-08-06T23:02:23;13.10;99.90
24452;DHT22;13350;50.984;5.822;2023-08-06T23:04:50;13.10;99.90
24452;DHT22;13350;50.984;5.822;2023-08-06T23:07:17;13.00;99.90
24452;DHT22;13350;50.984;5.822;2023-08-06T23:09:44;13.00;99.90
24452;DHT22;13350;50.984;5.822;2023-08-06T23:12:12;13.00;99.90
24452;DHT22;13350;50.984;5.822;2023-08-06T23:14:39;13.00;99.90
24452;DHT22;13350;50.984;5.822;2023-08-06T23:17:06;13.00;99.90
24452;DHT22;13350;50.984;5.822;2023-08-06T23:19:33;13.00;99.90
24452;DHT22;13350;50.984;5.822;2023-08-06T23:22:00;13.00;99.90
24452;DHT22;13350;50.984;5.822;2023-08-06T23:24:27;13.00;99.90
24452;DHT22;13350;50.984;5.822;2023-08-06T23:26:54;13.00;99.90
24452;DHT22;13350;50.984;5.822;2023-08-06T23:29:22;13.00;99.90
24452;DHT22;13350;50.984;5.822;2023-08-06T23:31:49;13.10;99.90
24452;DHT22;13350;50.984;5.822;2023-08-06T23:34:16;13.10;99.90
24452;DHT22;13350;50.984;5.822;2023-08-06T23:36:43;13.00;99.90
24452;DHT22;13350;50.984;5.822;2023-08-06T23:39:10;13.00;99.90
24452;DHT22;13350;50.984;5.822;2023-08-06T23:41:37;13.00;99.90
24452;DHT22;13350;50.984;5.822;2023-08-06T23:44:04;13.00;99.90
24452;DHT22;13350;50.984;5.822;2023-08-06T23:46:33;13.00;99.90
24452;DHT22;13350;50.984;5.822;2023-08-06T23:49:01;13.00;99.90
24452;DHT22;13350;50.984;5.822;2023-08-06T23:51:29;13.10;99.90
24452;DHT22;13350;50.984;5.822;2023-08-06T23:53:56;13.10;99.90
24452;DHT22;13350;50.984;5.822;2023-08-06T23:56:23;13.10;99.90
24452;DHT22;13350;50.984;5.822;2023-08-06T23:58:50;13.10;99.90
